Terminal Aerodrome Forecast
Issued by NWS

Home | Current Version | Previous Version | Graphics & Text | Print | Product List | Glossary On
Versions: 1 2 3 4 5 6 7 8 9 10 11 12 13 14 15 16 17 18 19 20 21 22
000
FTUS43 KGRB 242229 AAA
TAFCWA
TAF AMD
KCWA 242229Z 2422/2518 11009KT P6SM -SHRA BKN009 OVC015
      TEMPO 2422/2423 4SM -RA BR
     FM242300 10010KT 3SM RA BR BKN007 OVC012
      TEMPO 2423/2502 1 1/2SM RA BR
     FM250200 09009KT 3SM RA BR BKN004 WS012/16035KT
     FM250900 15007KT 2SM -RADZ BR BKN003 WS012/21040KT
     FM251500 24008G14KT P6SM VCSH BKN012=

USA.gov is the U.S. government's official web portal to all federal, state and local government web resources and services.